createdAt,value
2018-09-03T00:02:21.853Z,91.27
2018-09-03T00:04:50.629Z,91.15
2018-09-03T00:07:20.009Z,91.92
2018-09-03T00:09:50.283Z,91.37
2018-09-03T00:12:19.379Z,91.67
2018-09-03T00:14:48.135Z,92.17
2018-09-03T00:17:17.544Z,91.99
2018-09-03T00:19:46.591Z,91.56
2018-09-03T00:22:15.654Z,91.74
2018-09-03T00:24:45.309Z,92.20
2018-09-03T00:27:14.437Z,92.46
2018-09-03T00:29:43.169Z,92.15
2018-09-03T00:32:17.019Z,92.30
2018-09-03T00:34:50.893Z,91.65
2018-09-03T00:38:23.199Z,92.00
2018-09-03T00:40:57.222Z,91.80
2018-09-03T00:43:31.180Z,92.54
2018-09-03T00:46:05.211Z,92.20
2018-09-03T00:48:34.591Z,92.77
2018-09-03T00:51:03.364Z,92.25
2018-09-03T00:53:32.345Z,93.29
2018-09-03T00:56:01.138Z,93.49
2018-09-03T00:58:30.194Z,93.44
2018-09-03T01:00:59.327Z,93.13
2018-09-03T01:03:28.102Z,93.10
2018-09-03T01:05:56.874Z,93.96
2018-09-03T01:08:25.890Z,93.52
2018-09-03T01:10:54.882Z,93.79
2018-09-03T01:13:23.641Z,93.63
2018-09-03T01:15:52.657Z,93.71
2018-09-03T01:18:21.402Z,93.87
2018-09-03T01:20:50.155Z,94.21
2018-09-03T01:23:18.993Z,94.63
2018-09-03T01:25:48.808Z,94.98
2018-09-03T01:28:17.886Z,95.17
2018-09-03T01:30:47.045Z,95.22
2018-09-03T01:33:16.115Z,95.07
2018-09-03T01:35:44.900Z,95.19
2018-09-03T01:38:14.097Z,95.63
2018-09-03T01:40:43.205Z,95.56
2018-09-03T01:43:12.221Z,96.20
2018-09-03T01:45:41.434Z,95.87
2018-09-03T01:48:11.493Z,96.43
2018-09-03T01:50:40.943Z,96.43
2018-09-03T01:53:09.987Z,96.49
2018-09-03T01:55:39.331Z,96.69
2018-09-03T01:58:08.429Z,96.49
2018-09-03T02:00:37.385Z,96.30
2018-09-03T02:03:06.183Z,96.59
2018-09-03T02:05:35.207Z,96.52
2018-09-03T02:08:04.392Z,96.04
2018-09-03T02:10:33.163Z,96.17
2018-09-03T02:13:02.281Z,96.73
2018-09-03T02:15:31.425Z,96.26
2018-09-03T02:18:00.402Z,96.66
2018-09-03T02:20:29.561Z,96.44
2018-09-03T02:22:58.790Z,96.21
2018-09-03T02:25:27.591Z,96.12
2018-09-03T02:27:56.378Z,96.40
2018-09-03T02:30:25.271Z,96.88
2018-09-03T02:32:54.529Z,97.34
2018-09-03T02:35:23.252Z,98.30
2018-09-03T02:37:52.239Z,97.94
2018-09-03T02:40:21.635Z,98.57
2018-09-03T02:42:50.999Z,98.95
2018-09-03T02:45:19.764Z,98.90
2018-09-03T02:47:48.594Z,98.69
2018-09-03T02:50:17.881Z,98.70
2018-09-03T02:52:46.611Z,99.06
2018-09-03T02:55:15.431Z,98.69
2018-09-03T02:57:44.928Z,98.79
2018-09-03T03:00:13.708Z,98.59
2018-09-03T03:02:42.441Z,98.78
2018-09-03T03:05:11.423Z,98.91
2018-09-03T03:07:40.388Z,99.24
2018-09-03T03:10:09.130Z,99.43
2018-09-03T03:12:38.130Z,99.15
2018-09-03T03:15:06.888Z,99.40
2018-09-03T03:17:35.691Z,99.52
2018-09-03T03:20:04.429Z,99.67
2018-09-03T03:22:33.817Z,99.86
2018-09-03T03:25:02.958Z,100.00
2018-09-03T03:27:31.752Z,100.00
2018-09-03T03:30:00.767Z,100.00
2018-09-03T03:32:29.794Z,100.00
2018-09-03T03:34:58.937Z,100.00
2018-09-03T03:37:28.270Z,100.00
2018-09-03T03:39:57.045Z,100.00
2018-09-03T03:42:26.236Z,100.00
2018-09-03T03:44:55.279Z,100.00
2018-09-03T03:47:24.021Z,100.00
2018-09-03T03:49:53.112Z,100.00
2018-09-03T03:52:22.241Z,100.00
2018-09-03T03:54:51.427Z,100.00
2018-09-03T03:57:20.835Z,100.00
2018-09-03T03:59:50.131Z,100.00
2018-09-03T04:02:19.160Z,100.00
2018-09-03T04:04:48.234Z,100.00
2018-09-03T04:07:17.395Z,100.00
2018-09-03T04:09:46.182Z,100.00
2018-09-03T04:12:14.966Z,100.00
2018-09-03T04:14:43.819Z,100.00
2018-09-03T04:17:12.861Z,100.00
2018-09-03T04:19:41.732Z,100.00
2018-09-03T04:22:10.498Z,100.00
2018-09-03T04:24:39.579Z,100.00
2018-09-03T04:27:08.904Z,100.00
2018-09-03T04:29:37.644Z,100.00
2018-09-03T04:32:06.718Z,100.00
2018-09-03T04:34:35.472Z,100.00
2018-09-03T04:37:04.330Z,100.00
2018-09-03T04:39:33.436Z,100.00
2018-09-03T04:42:02.576Z,100.00
2018-09-03T04:44:32.064Z,100.00
2018-09-03T04:47:01.126Z,100.00
2018-09-03T04:49:30.627Z,100.00
2018-09-03T04:51:59.455Z,100.00
2018-09-03T04:54:28.328Z,100.00
2018-09-03T04:56:57.397Z,100.00
2018-09-03T04:59:26.162Z,100.00
2018-09-03T05:01:54.922Z,100.00
2018-09-03T05:04:23.642Z,100.00
2018-09-03T05:06:52.440Z,100.00
2018-09-03T05:09:21.476Z,100.00
2018-09-03T05:11:51.047Z,100.00
2018-09-03T05:14:20.131Z,100.00
2018-09-03T05:16:49.149Z,100.00
2018-09-03T05:19:18.294Z,100.00
2018-09-03T05:21:47.039Z,100.00
2018-09-03T05:24:16.446Z,100.00
2018-09-03T05:26:45.622Z,100.00
2018-09-03T05:29:14.544Z,100.00
2018-09-03T05:31:43.725Z,100.00
2018-09-03T05:34:12.510Z,100.00
2018-09-03T05:36:41.518Z,100.00
2018-09-03T05:39:12.007Z,100.00
2018-09-03T05:41:42.520Z,100.00
2018-09-03T05:44:11.558Z,100.00
2018-09-03T05:46:40.771Z,100.00
2018-09-03T05:49:09.961Z,100.00
2018-09-03T05:51:39.052Z,100.00
2018-09-03T05:54:08.143Z,100.00
2018-09-03T05:56:36.967Z,100.00
2018-09-03T05:59:06.125Z,100.00
2018-09-03T06:01:34.933Z,100.00
2018-09-03T06:04:04.436Z,100.00
2018-09-03T06:06:33.184Z,100.00
2018-09-03T06:09:10.456Z,100.00
2018-09-03T06:11:40.038Z,100.00
2018-09-03T06:14:09.274Z,100.00
2018-09-03T06:16:38.373Z,100.00
2018-09-03T06:19:07.124Z,100.00
2018-09-03T06:21:36.100Z,100.00
2018-09-03T06:24:04.850Z,100.00
2018-09-03T06:26:33.615Z,100.00
2018-09-03T06:29:02.444Z,100.00
2018-09-03T06:31:31.212Z,100.00
2018-09-03T06:33:59.971Z,100.00
2018-09-03T06:36:28.793Z,100.00
2018-09-03T06:38:57.750Z,100.00
2018-09-03T06:41:26.526Z,100.00
2018-09-03T06:43:55.574Z,100.00
2018-09-03T06:46:24.558Z,99.89
2018-09-03T06:48:53.741Z,100.00
2018-09-03T06:51:22.826Z,99.31
2018-09-03T06:53:52.547Z,99.24
2018-09-03T06:56:21.278Z,99.42
2018-09-03T06:58:50.407Z,100.00
2018-09-03T07:01:19.131Z,99.26
2018-09-03T07:03:48.161Z,99.63
2018-09-03T07:06:17.181Z,99.81
2018-09-03T07:08:46.248Z,99.70
2018-09-03T07:11:14.969Z,99.64
2018-09-03T07:13:43.756Z,99.43
2018-09-03T07:16:12.834Z,99.44
2018-09-03T07:18:41.595Z,100.00
2018-09-03T07:21:10.768Z,99.50
2018-09-03T07:23:39.769Z,99.34
2018-09-03T07:26:08.783Z,98.64
2018-09-03T07:28:37.874Z,99.42
2018-09-03T07:31:06.586Z,99.13
2018-09-03T07:33:35.320Z,99.55
2018-09-03T07:36:04.376Z,97.86
2018-09-03T07:38:33.151Z,98.07
2018-09-03T07:41:02.116Z,97.18
2018-09-03T07:43:31.107Z,97.38
2018-09-03T07:46:00.399Z,96.84
2018-09-03T07:48:29.146Z,96.69
2018-09-03T07:50:57.973Z,96.78
2018-09-03T07:53:26.911Z,96.40
2018-09-03T07:55:55.690Z,96.75
2018-09-03T07:58:24.455Z,96.46
2018-09-03T08:00:53.423Z,96.50
2018-09-03T08:03:22.181Z,96.34
2018-09-03T08:05:51.924Z,96.88
2018-09-03T08:08:23.839Z,96.13
2018-09-03T08:10:52.686Z,95.53
2018-09-03T08:13:26.616Z,95.89
2018-09-03T08:16:01.525Z,96.11
2018-09-03T08:18:30.626Z,95.30
2018-09-03T08:20:59.425Z,94.60
2018-09-03T08:23:28.389Z,94.80
2018-09-03T08:25:57.793Z,94.94
2018-09-03T08:28:27.059Z,94.85
2018-09-03T08:30:56.171Z,93.85
2018-09-03T08:33:24.886Z,93.18
2018-09-03T08:35:53.642Z,93.70
2018-09-03T08:38:23.034Z,94.04
2018-09-03T08:40:52.078Z,92.33
2018-09-03T08:43:21.551Z,92.52
2018-09-03T08:45:50.323Z,92.26
2018-09-03T08:48:19.074Z,91.35
2018-09-03T08:50:47.775Z,91.19
2018-09-03T08:53:17.284Z,89.84
2018-09-03T08:55:46.117Z,89.62
2018-09-03T08:58:15.177Z,87.21
2018-09-03T09:00:44.153Z,85.90
2018-09-03T09:03:18.483Z,85.75
2018-09-03T09:05:47.699Z,85.16
2018-09-03T09:08:16.397Z,84.05
2018-09-03T09:10:45.155Z,82.48
2018-09-03T09:13:13.937Z,82.33
2018-09-03T09:15:42.916Z,82.13
2018-09-03T09:18:12.174Z,82.27
2018-09-03T09:20:40.951Z,82.66
2018-09-03T09:23:09.691Z,81.03
2018-09-03T09:25:38.784Z,80.46
2018-09-03T09:28:07.836Z,79.85
2018-09-03T09:30:36.917Z,79.31
2018-09-03T09:33:05.991Z,78.36
2018-09-03T09:35:34.850Z,76.89
2018-09-03T09:38:03.875Z,74.91
2018-09-03T09:40:33.052Z,75.44
2018-09-03T09:43:01.894Z,75.46
2018-09-03T09:45:30.857Z,76.05
2018-09-03T09:47:59.594Z,73.37
2018-09-03T09:50:28.337Z,73.94
2018-09-03T09:52:57.149Z,72.49
2018-09-03T09:55:26.352Z,71.90
2018-09-03T09:57:55.079Z,72.55
2018-09-03T10:00:29.057Z,71.20
2018-09-03T10:02:58.425Z,71.75
2018-09-03T10:05:27.761Z,71.32
2018-09-03T10:07:56.575Z,70.20
2018-09-03T10:10:25.816Z,68.37
2018-09-03T10:12:54.615Z,68.35
2018-09-03T10:15:23.497Z,68.30
2018-09-03T10:17:52.496Z,69.15
2018-09-03T10:20:21.280Z,69.57
2018-09-03T10:22:50.361Z,69.41
2018-09-03T10:25:19.391Z,69.73
2018-09-03T10:27:48.201Z,68.58
2018-09-03T10:30:16.937Z,69.21
2018-09-03T10:32:46.443Z,67.82
2018-09-03T10:35:15.168Z,67.94
2018-09-03T10:37:43.857Z,67.47
2018-09-03T10:40:12.947Z,66.43
2018-09-03T10:42:42.113Z,66.43
2018-09-03T10:45:10.870Z,66.64
2018-09-03T10:47:39.939Z,65.83
2018-09-03T10:50:08.914Z,65.08
2018-09-03T10:52:38.003Z,62.96
2018-09-03T10:55:07.466Z,62.83
2018-09-03T10:57:36.609Z,64.45
2018-09-03T11:00:06.020Z,64.92
2018-09-03T11:02:35.045Z,65.45
2018-09-03T11:05:04.106Z,66.30
2018-09-03T11:07:32.892Z,66.56
2018-09-03T11:10:01.681Z,67.09
2018-09-03T11:12:30.735Z,66.78
2018-09-03T11:14:59.950Z,66.41
2018-09-03T11:17:28.720Z,65.94
2018-09-03T11:20:00.105Z,66.74
2018-09-03T11:22:29.478Z,66.19
2018-09-03T11:24:59.443Z,66.61
2018-09-03T11:27:28.978Z,66.77
2018-09-03T11:29:58.237Z,66.76
2018-09-03T11:32:27.548Z,66.74
2018-09-03T11:34:56.375Z,65.92
2018-09-03T11:37:25.489Z,66.67
2018-09-03T11:39:55.242Z,66.11
2018-09-03T11:42:24.138Z,66.02
2018-09-03T11:44:52.847Z,67.11
2018-09-03T11:47:21.583Z,66.58
2018-09-03T11:49:50.646Z,66.78
2018-09-03T11:52:19.371Z,65.23
2018-09-03T11:54:48.124Z,64.85
2018-09-03T11:57:17.489Z,63.30
2018-09-03T11:59:46.578Z,62.37
2018-09-03T12:02:15.283Z,61.92
2018-09-03T12:04:44.082Z,59.79
2018-09-03T12:07:13.054Z,59.18
2018-09-03T12:09:42.471Z,58.50
2018-09-03T12:12:11.258Z,58.63
2018-09-03T12:14:42.431Z,57.90
2018-09-03T12:17:11.264Z,58.01
2018-09-03T12:19:40.822Z,57.94
2018-09-03T12:22:10.094Z,56.66
2018-09-03T12:24:38.835Z,56.20
2018-09-03T12:27:07.764Z,55.81
2018-09-03T12:29:36.821Z,54.38
2018-09-03T12:32:05.578Z,53.66
2018-09-03T12:34:34.587Z,54.49
2018-09-03T12:37:03.482Z,53.47
2018-09-03T12:39:32.172Z,52.32
2018-09-03T12:42:01.162Z,52.05
2018-09-03T12:44:30.897Z,52.96
2018-09-03T12:47:00.314Z,52.80
2018-09-03T12:49:29.094Z,50.70
2018-09-03T12:51:58.231Z,50.40
2018-09-03T12:54:27.344Z,49.61
2018-09-03T12:56:56.108Z,48.99
2018-09-03T12:59:24.899Z,49.09
2018-09-03T13:01:53.691Z,49.06
2018-09-03T13:04:22.440Z,49.08
2018-09-03T13:06:58.094Z,48.91
2018-09-03T13:09:27.073Z,47.74
2018-09-03T13:11:55.848Z,48.34
2018-09-03T13:14:24.588Z,47.94
2018-09-03T13:16:53.598Z,48.41
2018-09-03T13:19:22.921Z,48.04
2018-09-03T13:21:52.466Z,47.74
2018-09-03T13:24:21.556Z,47.78
2018-09-03T13:26:50.335Z,47.96
2018-09-03T13:29:19.219Z,47.40
2018-09-03T13:31:48.035Z,47.50
2018-09-03T13:34:17.134Z,49.08
2018-09-03T13:36:45.902Z,49.08
2018-09-03T13:39:15.766Z,49.45
2018-09-03T13:41:44.549Z,48.31
2018-09-03T13:44:13.273Z,48.25
2018-09-03T13:46:42.075Z,47.69
2018-09-03T13:49:10.819Z,47.22
2018-09-03T13:51:40.030Z,48.05
2018-09-03T13:54:08.730Z,46.81
2018-09-03T13:56:37.554Z,47.16
2018-09-03T13:59:06.305Z,47.78
2018-09-03T14:01:35.103Z,45.31
2018-09-03T14:04:04.186Z,46.49
2018-09-03T14:06:33.789Z,46.72
2018-09-03T14:09:03.235Z,47.49
2018-09-03T14:11:32.006Z,46.52
2018-09-03T14:14:00.787Z,47.12
2018-09-03T14:16:30.259Z,46.24
2018-09-03T14:18:59.070Z,44.78
2018-09-03T14:21:28.535Z,46.52
2018-09-03T14:23:57.475Z,46.44
2018-09-03T14:26:26.666Z,46.56
2018-09-03T14:28:55.418Z,46.14
2018-09-03T14:31:24.811Z,46.06
2018-09-03T14:33:53.838Z,46.18
2018-09-03T14:36:23.215Z,47.27
2018-09-03T14:38:55.100Z,47.44
2018-09-03T14:41:23.824Z,46.36
2018-09-03T14:43:52.816Z,44.98
2018-09-03T14:46:22.259Z,46.32
2018-09-03T14:48:51.035Z,44.77
2018-09-03T14:51:20.130Z,44.54
2018-09-03T14:53:49.083Z,46.09
2018-09-03T14:56:18.136Z,47.36
2018-09-03T14:58:46.862Z,46.64
2018-09-03T15:01:16.063Z,46.15
2018-09-03T15:03:44.840Z,44.61
2018-09-03T15:06:13.583Z,44.42
2018-09-03T15:08:42.630Z,45.40
2018-09-03T15:11:11.339Z,44.81
2018-09-03T15:13:40.099Z,45.57
2018-09-03T15:16:08.866Z,44.83
2018-09-03T15:18:37.985Z,46.35
2018-09-03T15:21:06.715Z,46.11
2018-09-03T15:23:35.450Z,46.86
2018-09-03T15:26:04.576Z,46.53
2018-09-03T15:28:33.278Z,47.50
2018-09-03T15:31:02.422Z,48.04
2018-09-03T15:33:31.238Z,47.53
2018-09-03T15:35:59.993Z,47.29
2018-09-03T15:38:28.765Z,48.00
2018-09-03T15:40:58.164Z,47.94
2018-09-03T15:43:27.567Z,48.74
2018-09-03T15:45:56.246Z,48.63
2018-09-03T15:48:25.630Z,48.61
2018-09-03T15:50:54.698Z,49.74
2018-09-03T15:53:24.295Z,49.77
2018-09-03T15:55:53.102Z,50.03
2018-09-03T15:58:21.832Z,49.79
2018-09-03T16:00:50.973Z,50.37
2018-09-03T16:03:19.972Z,50.13
2018-09-03T16:05:49.022Z,50.67
2018-09-03T16:08:18.105Z,51.33
2018-09-03T16:10:46.839Z,50.91
2018-09-03T16:13:15.897Z,50.91
2018-09-03T16:15:44.993Z,51.36
2018-09-03T16:18:14.317Z,50.57
2018-09-03T16:20:43.416Z,51.94
2018-09-03T16:23:12.152Z,52.18
2018-09-03T16:25:40.988Z,52.64
2018-09-03T16:28:10.036Z,53.13
2018-09-03T16:30:39.812Z,53.47
2018-09-03T16:33:08.634Z,53.25
2018-09-03T16:35:37.355Z,52.48
2018-09-03T16:38:06.816Z,52.88
2018-09-03T16:40:35.893Z,52.78
2018-09-03T16:43:04.914Z,52.47
2018-09-03T16:45:33.696Z,53.24
2018-09-03T16:48:02.910Z,53.71
2018-09-03T16:50:31.658Z,54.06
2018-09-03T16:53:00.408Z,53.84
2018-09-03T16:55:29.142Z,53.65
2018-09-03T16:57:58.503Z,53.96
2018-09-03T17:00:27.785Z,54.60
2018-09-03T17:02:56.494Z,54.97
2018-09-03T17:05:25.499Z,54.63
2018-09-03T17:07:54.330Z,54.73
2018-09-03T17:10:23.542Z,55.36
2018-09-03T17:12:52.342Z,54.83
2018-09-03T17:15:21.323Z,55.43
2018-09-03T17:17:50.627Z,55.28
2018-09-03T17:20:19.550Z,54.85
2018-09-03T17:22:48.259Z,55.92
2018-09-03T17:25:16.987Z,55.66
2018-09-03T17:27:45.808Z,55.67
2018-09-03T17:30:15.089Z,55.89
2018-09-03T17:32:44.173Z,55.90
2018-09-03T17:35:13.510Z,56.13
2018-09-03T17:37:42.304Z,56.29
2018-09-03T17:40:11.334Z,56.75
2018-09-03T17:42:40.140Z,57.22
2018-09-03T17:45:10.102Z,57.64
2018-09-03T17:47:39.847Z,58.17
2018-09-03T17:50:09.389Z,58.38
2018-09-03T17:52:38.536Z,58.73
2018-09-03T17:55:08.134Z,58.16
2018-09-03T17:57:37.324Z,58.83
2018-09-03T18:00:06.697Z,59.51
2018-09-03T18:02:36.128Z,59.08
2018-09-03T18:05:05.240Z,59.37
2018-09-03T18:07:34.529Z,59.79
2018-09-03T18:10:03.919Z,59.35
2018-09-03T18:12:32.947Z,59.52
2018-09-03T18:15:01.988Z,60.00
2018-09-03T18:17:30.774Z,59.41
2018-09-03T18:19:59.903Z,60.80
2018-09-03T18:22:28.627Z,61.52
2018-09-03T18:24:57.362Z,61.94
2018-09-03T18:27:26.917Z,61.39
2018-09-03T18:29:55.702Z,61.68
2018-09-03T18:32:24.469Z,62.49
2018-09-03T18:34:53.189Z,61.72
2018-09-03T18:37:22.336Z,62.13
2018-09-03T18:39:51.072Z,62.34
2018-09-03T18:42:20.041Z,62.95
2018-09-03T18:44:49.387Z,63.77
2018-09-03T18:47:18.470Z,63.46
2018-09-03T18:49:47.675Z,63.81
2018-09-03T18:52:16.523Z,63.75
2018-09-03T18:54:45.508Z,64.32
2018-09-03T18:57:14.239Z,65.08
2018-09-03T18:59:43.590Z,65.60
2018-09-03T19:02:12.366Z,65.44
2018-09-03T19:04:41.115Z,66.52
2018-09-03T19:07:10.129Z,66.81
2018-09-03T19:09:38.904Z,67.34
2018-09-03T19:12:08.298Z,68.17
2018-09-03T19:14:37.017Z,69.73
2018-09-03T19:17:05.928Z,70.92
2018-09-03T19:19:34.967Z,71.43
2018-09-03T19:22:03.853Z,73.01
2018-09-03T19:24:32.942Z,72.87
2018-09-03T19:27:01.790Z,74.28
2018-09-03T19:29:30.584Z,74.98
2018-09-03T19:31:59.595Z,75.73
2018-09-03T19:34:29.243Z,76.52
2018-09-03T19:36:57.983Z,77.09
2018-09-03T19:39:27.186Z,77.76
2018-09-03T19:41:55.938Z,78.63
2018-09-03T19:44:25.035Z,79.02
2018-09-03T19:46:54.366Z,79.74
2018-09-03T19:49:23.111Z,82.17
2018-09-03T19:51:51.903Z,82.59
2018-09-03T19:54:20.681Z,82.92
2018-09-03T19:56:50.170Z,83.82
2018-09-03T19:59:18.967Z,84.90
2018-09-03T20:01:47.703Z,85.71
2018-09-03T20:04:16.468Z,86.74
2018-09-03T20:06:45.837Z,86.49
2018-09-03T20:09:14.665Z,87.49
2018-09-03T20:11:44.361Z,87.52
2018-09-03T20:14:16.284Z,87.85
2018-09-03T20:16:45.197Z,88.27
2018-09-03T20:19:13.917Z,88.96
2018-09-03T20:21:42.968Z,89.26
2018-09-03T20:24:12.042Z,89.20
2018-09-03T20:26:41.150Z,89.57
2018-09-03T20:29:10.369Z,90.05
2018-09-03T20:31:39.393Z,90.32
2018-09-03T20:34:08.164Z,90.63
2018-09-03T20:36:37.628Z,91.37
2018-09-03T20:39:07.293Z,90.93
2018-09-03T20:41:36.047Z,91.19
2018-09-03T20:44:04.900Z,92.65
2018-09-03T20:46:33.736Z,91.71
2018-09-03T20:49:02.734Z,91.97
2018-09-03T20:51:31.817Z,92.63
2018-09-03T20:54:01.107Z,92.44
2018-09-03T20:56:29.907Z,92.71
2018-09-03T20:58:58.762Z,93.58
2018-09-03T21:01:28.024Z,94.04
2018-09-03T21:03:57.224Z,94.06
2018-09-03T21:06:25.976Z,94.24
2018-09-03T21:08:54.763Z,94.84
2018-09-03T21:11:29.825Z,94.88
2018-09-03T21:13:58.953Z,95.01
2018-09-03T21:16:27.738Z,94.74
2018-09-03T21:18:56.530Z,95.31
2018-09-03T21:21:25.857Z,94.88
2018-09-03T21:23:54.615Z,94.81
2018-09-03T21:26:23.415Z,94.86
2018-09-03T21:28:52.619Z,95.34
2018-09-03T21:31:21.797Z,95.47
2018-09-03T21:33:51.478Z,94.90
2018-09-03T21:36:20.261Z,95.25
2018-09-03T21:38:55.518Z,95.93
2018-09-03T21:41:24.945Z,95.82
2018-09-03T21:43:54.204Z,95.71
2018-09-03T21:46:23.417Z,95.36
2018-09-03T21:48:52.172Z,95.28
2018-09-03T21:51:21.002Z,95.47
2018-09-03T21:53:50.242Z,95.85
2018-09-03T21:56:18.999Z,95.96
2018-09-03T21:58:48.045Z,95.49
2018-09-03T22:01:17.049Z,96.16
2018-09-03T22:03:46.387Z,95.35
2018-09-03T22:06:15.182Z,95.54
2018-09-03T22:08:44.358Z,95.32
2018-09-03T22:11:13.090Z,95.05
2018-09-03T22:13:41.886Z,95.79
2018-09-03T22:16:10.661Z,95.82
2018-09-03T22:18:40.400Z,95.68
2018-09-03T22:21:09.582Z,95.65
2018-09-03T22:23:38.783Z,95.51
2018-09-03T22:26:08.280Z,95.58
2018-09-03T22:28:37.925Z,95.32
2018-09-03T22:31:07.342Z,95.08
2018-09-03T22:33:36.110Z,94.79
2018-09-03T22:36:04.974Z,94.33
2018-09-03T22:38:40.348Z,94.48
2018-09-03T22:41:09.147Z,94.51
2018-09-03T22:43:38.831Z,94.16
2018-09-03T22:46:08.877Z,94.18
2018-09-03T22:48:37.630Z,93.85
2018-09-03T22:51:06.595Z,93.71
2018-09-03T22:53:35.418Z,93.53
2018-09-03T22:56:04.155Z,93.95
2018-09-03T22:58:32.871Z,93.15
2018-09-03T23:01:02.710Z,92.81
2018-09-03T23:03:32.728Z,93.36
2018-09-03T23:06:02.369Z,93.12
2018-09-03T23:08:32.221Z,93.15
2018-09-03T23:11:02.020Z,93.31
2018-09-03T23:13:32.467Z,93.50
2018-09-03T23:16:02.799Z,93.44
2018-09-03T23:18:31.924Z,93.38
2018-09-03T23:21:00.706Z,92.71
2018-09-03T23:23:29.858Z,92.65
2018-09-03T23:25:58.991Z,92.63
2018-09-03T23:28:28.325Z,92.85
2018-09-03T23:30:57.959Z,92.53
2018-09-03T23:33:26.742Z,92.98
2018-09-03T23:35:55.588Z,93.00
2018-09-03T23:38:24.326Z,93.06
2018-09-03T23:40:53.081Z,92.64
2018-09-03T23:43:22.111Z,92.62
2018-09-03T23:45:51.137Z,93.01
2018-09-03T23:48:20.460Z,92.41
2018-09-03T23:50:49.589Z,92.32
2018-09-03T23:53:19.035Z,93.11
2018-09-03T23:55:48.142Z,93.16
2018-09-03T23:58:17.198Z,93.46
